createdAt,value
2018-07-11T00:01:13.732Z,482.63
2018-07-11T00:03:54.284Z,475.37
2018-07-11T00:06:22.679Z,476.37
2018-07-11T00:08:49.868Z,475.77
2018-07-11T00:11:17.094Z,476.43
2018-07-11T00:13:45.292Z,481.27
2018-07-11T00:16:13.066Z,475.77
2018-07-11T00:18:40.282Z,477.60
2018-07-11T00:21:07.492Z,475.37
2018-07-11T00:23:34.705Z,471.70
2018-07-11T00:26:02.219Z,477.20
2018-07-11T00:28:29.445Z,473.50
2018-07-11T00:30:57.059Z,478.43
2018-07-11T00:33:24.433Z,474.37
2018-07-11T00:35:51.682Z,473.77
2018-07-11T00:38:19.066Z,472.30
2018-07-11T00:40:46.272Z,472.67
2018-07-11T00:43:13.700Z,475.57
2018-07-11T00:45:40.945Z,470.17
2018-07-11T00:48:08.325Z,472.90
2018-07-11T00:50:35.684Z,472.67
2018-07-11T00:53:03.261Z,473.50
2018-07-11T00:55:30.481Z,473.30
2018-07-11T00:58:02.089Z,473.20
2018-07-11T01:00:29.264Z,474.03
2018-07-11T01:02:56.474Z,472.57
2018-07-11T01:05:23.692Z,477.50
2018-07-11T01:07:50.993Z,472.40
2018-07-11T01:10:18.193Z,476.17
2018-07-11T01:12:45.410Z,471.73
2018-07-11T01:15:12.623Z,472.53
2018-07-11T01:17:46.827Z,475.63
2018-07-11T01:20:14.072Z,474.77
2018-07-11T01:22:41.273Z,476.60
2018-07-11T01:25:08.449Z,473.03
2018-07-11T01:27:35.633Z,470.47
2018-07-11T01:30:02.829Z,475.40
2018-07-11T01:32:30.025Z,473.57
2018-07-11T01:34:57.200Z,476.17
2018-07-11T01:37:24.460Z,470.13
2018-07-11T01:39:51.873Z,471.50
2018-07-11T01:42:19.124Z,474.07
2018-07-11T01:44:46.392Z,476.47
2018-07-11T01:47:13.664Z,476.80
2018-07-11T01:49:40.970Z,472.13
2018-07-11T01:52:19.692Z,473.23
2018-07-11T01:54:46.961Z,475.77
2018-07-11T01:57:14.248Z,471.03
2018-07-11T01:59:41.509Z,471.67
2018-07-11T02:02:08.759Z,471.90
2018-07-11T02:04:37.923Z,474.87
2018-07-11T02:07:05.185Z,474.00
2018-07-11T02:09:32.452Z,477.37
2018-07-11T02:11:59.709Z,477.97
2018-07-11T02:14:27.082Z,478.60
2018-07-11T02:16:54.557Z,473.23
2018-07-11T02:19:22.532Z,474.87
2018-07-11T02:21:50.510Z,476.13
2018-07-11T02:24:18.709Z,473.03
2018-07-11T02:26:45.964Z,479.27
2018-07-11T02:29:13.205Z,480.60
2018-07-11T02:31:40.479Z,477.03
2018-07-11T02:34:07.712Z,472.20
2018-07-11T02:36:34.933Z,473.53
2018-07-11T02:39:02.197Z,475.77
2018-07-11T02:41:29.428Z,473.47
2018-07-11T02:43:56.706Z,473.47
2018-07-11T02:46:29.802Z,479.90
2018-07-11T02:48:57.061Z,474.67
2018-07-11T02:51:24.323Z,476.10
2018-07-11T02:53:51.589Z,469.67
2018-07-11T02:56:18.817Z,472.30
2018-07-11T02:58:46.061Z,474.10
2018-07-11T03:01:13.301Z,472.10
2018-07-11T03:03:40.549Z,471.17
2018-07-11T03:06:07.785Z,468.90
2018-07-11T03:08:36.213Z,476.30
2018-07-11T03:11:04.134Z,471.70
2018-07-11T03:13:31.386Z,465.30
2018-07-11T03:15:59.023Z,468.07
2018-07-11T03:18:26.689Z,473.37
2018-07-11T03:20:53.954Z,473.07
2018-07-11T03:23:21.338Z,470.33
2018-07-11T03:25:48.593Z,469.10
2018-07-11T03:28:16.078Z,476.40
2018-07-11T03:30:43.332Z,470.50
2018-07-11T03:33:10.585Z,470.53
2018-07-11T03:35:37.849Z,469.73
2018-07-11T03:38:05.109Z,469.27
2018-07-11T03:40:32.372Z,472.73
2018-07-11T03:42:59.622Z,467.87
2018-07-11T03:45:26.876Z,469.43
2018-07-11T03:47:54.117Z,474.57
2018-07-11T03:50:21.362Z,471.83
2018-07-11T03:52:48.590Z,472.07
2018-07-11T03:55:15.819Z,469.60
2018-07-11T03:57:43.253Z,477.67
2018-07-11T04:00:10.599Z,472.70
2018-07-11T04:02:37.777Z,470.77
2018-07-11T04:05:05.171Z,470.70
2018-07-11T04:07:32.521Z,467.13
2018-07-11T04:09:59.741Z,472.37
2018-07-11T04:12:26.948Z,468.27
2018-07-11T04:14:54.164Z,470.77
2018-07-11T04:17:21.372Z,475.10
2018-07-11T04:19:48.584Z,471.00
2018-07-11T04:22:15.817Z,471.97
2018-07-11T04:24:43.076Z,469.13
2018-07-11T04:27:10.337Z,468.60
2018-07-11T04:29:37.613Z,472.07
2018-07-11T04:32:04.836Z,466.63
2018-07-11T04:34:32.108Z,474.97
2018-07-11T04:36:59.354Z,470.37
2018-07-11T04:39:26.617Z,468.47
2018-07-11T04:41:53.873Z,469.20
2018-07-11T04:44:21.401Z,472.27
2018-07-11T04:46:48.878Z,469.90
2018-07-11T04:49:16.149Z,471.43
2018-07-11T04:51:44.686Z,470.07
2018-07-11T04:54:11.949Z,472.10
2018-07-11T04:56:39.213Z,472.57
2018-07-11T04:59:06.437Z,468.27
2018-07-11T05:01:33.652Z,466.87
2018-07-11T05:04:00.931Z,472.13
2018-07-11T05:06:28.153Z,469.87
2018-07-11T05:08:55.352Z,471.00
2018-07-11T05:11:22.585Z,470.77
2018-07-11T05:13:49.799Z,475.60
2018-07-11T05:16:17.154Z,467.87
2018-07-11T05:18:44.237Z,464.30
2018-07-11T05:21:11.448Z,469.20
2018-07-11T05:23:38.661Z,469.97
2018-07-11T05:26:05.894Z,470.67
2018-07-11T05:28:33.138Z,476.97
2018-07-11T05:31:00.369Z,469.60
2018-07-11T05:33:27.585Z,473.77
2018-07-11T05:35:54.820Z,472.47
2018-07-11T05:38:22.045Z,472.87
2018-07-11T05:40:49.265Z,475.10
2018-07-11T05:43:16.508Z,477.37
2018-07-11T05:45:43.731Z,473.07
2018-07-11T05:48:10.989Z,471.10
2018-07-11T05:50:38.210Z,474.77
2018-07-11T05:53:05.497Z,473.23
2018-07-11T05:55:32.717Z,474.63
2018-07-11T05:57:59.944Z,470.57
2018-07-11T06:00:27.169Z,473.63
2018-07-11T06:02:54.422Z,470.67
2018-07-11T06:05:21.683Z,474.67
2018-07-11T06:07:48.901Z,476.40
2018-07-11T06:10:16.122Z,476.17
2018-07-11T06:12:43.341Z,477.77
2018-07-11T06:15:10.544Z,482.67
2018-07-11T06:17:37.766Z,482.43
2018-07-11T06:20:05.103Z,483.97
2018-07-11T06:22:32.306Z,487.20
2018-07-11T06:24:59.536Z,485.67
2018-07-11T06:27:27.228Z,491.80
2018-07-11T06:29:54.452Z,492.13
2018-07-11T06:32:21.678Z,490.47
2018-07-11T06:34:48.921Z,494.47
2018-07-11T06:37:16.146Z,501.83
2018-07-11T06:39:43.357Z,503.50
2018-07-11T06:42:10.573Z,502.50
2018-07-11T06:44:37.798Z,498.50
2018-07-11T06:47:10.750Z,499.50
2018-07-11T06:49:37.952Z,500.93
2018-07-11T06:52:05.199Z,501.73
2018-07-11T06:54:32.429Z,496.20
2018-07-11T06:56:59.668Z,501.17
2018-07-11T06:59:26.893Z,500.90
2018-07-11T07:01:54.100Z,505.90
2018-07-11T07:04:21.320Z,509.03
2018-07-11T07:06:48.530Z,512.73
2018-07-11T07:09:16.177Z,519.33
2018-07-11T07:11:43.372Z,520.10
2018-07-11T07:14:10.585Z,527.63
2018-07-11T07:16:37.882Z,536.00
2018-07-11T07:19:05.194Z,535.53
2018-07-11T07:21:32.442Z,533.60
2018-07-11T07:23:59.668Z,531.60
2018-07-11T07:26:26.876Z,525.93
2018-07-11T07:28:54.119Z,520.93
2018-07-11T07:31:21.329Z,516.90
2018-07-11T07:33:48.552Z,511.27
2018-07-11T07:36:15.769Z,516.17
2018-07-11T07:38:43.534Z,514.47
2018-07-11T07:41:11.003Z,508.97
2018-07-11T07:43:39.806Z,507.80
2018-07-11T07:46:07.274Z,508.07
2018-07-11T07:48:34.536Z,506.73
2018-07-11T07:51:01.798Z,510.70
2018-07-11T07:53:29.060Z,509.97
2018-07-11T07:55:56.346Z,511.87
2018-07-11T07:58:23.685Z,509.30
2018-07-11T08:00:51.469Z,513.20
2018-07-11T08:03:18.714Z,521.37
2018-07-11T08:05:46.000Z,530.37
2018-07-11T08:08:13.204Z,539.03
2018-07-11T08:10:40.438Z,544.30
2018-07-11T08:13:07.666Z,550.67
2018-07-11T08:15:34.905Z,544.33
2018-07-11T08:18:02.133Z,546.57
2018-07-11T08:20:29.352Z,552.33
2018-07-11T08:23:18.246Z,550.73
2018-07-11T08:27:58.713Z,545.97
2018-07-11T08:31:36.378Z,545.37
2018-07-11T08:34:15.165Z,545.57
2018-07-11T08:36:52.385Z,544.83
2018-07-11T08:42:36.018Z,554.40
2018-07-11T08:45:15.474Z,561.40
2018-07-11T08:50:00.261Z,558.80
2018-07-11T08:52:38.756Z,570.27
2018-07-11T08:55:26.731Z,567.87
2018-07-11T08:58:05.165Z,559.70
2018-07-11T09:00:59.348Z,553.27
2018-07-11T09:05:43.197Z,548.23
2018-07-11T09:08:24.071Z,557.83
2018-07-11T09:13:05.301Z,550.30
2018-07-11T09:17:55.709Z,538.83
2018-07-11T09:23:41.908Z,522.70
2018-07-11T09:26:09.132Z,516.43
2018-07-11T09:28:36.378Z,511.93
2018-07-11T09:31:03.622Z,509.43
2018-07-11T09:33:30.851Z,513.37
2018-07-11T09:35:58.114Z,512.77
2018-07-11T09:38:25.321Z,513.13
2018-07-11T09:40:52.597Z,513.93
2018-07-11T09:43:19.862Z,513.23
2018-07-11T09:45:47.110Z,514.00
2018-07-11T09:48:14.390Z,511.13
2018-07-11T09:50:41.661Z,510.90
2018-07-11T09:53:08.910Z,506.70
2018-07-11T09:55:36.203Z,506.30
2018-07-11T09:58:04.022Z,503.80
2018-07-11T10:00:36.889Z,510.70
2018-07-11T10:03:04.413Z,509.80
2018-07-11T10:05:31.680Z,519.33
2018-07-11T10:07:58.951Z,520.73
2018-07-11T10:10:26.177Z,532.80
2018-07-11T10:12:53.413Z,542.93
2018-07-11T10:15:20.647Z,561.90
2018-07-11T10:17:47.922Z,570.27
2018-07-11T10:20:15.145Z,571.77
2018-07-11T10:22:42.384Z,568.43
2018-07-11T10:25:09.618Z,586.33
2018-07-11T10:27:36.907Z,623.77
2018-07-11T10:30:04.162Z,620.03
2018-07-11T10:32:31.432Z,592.87
2018-07-11T10:34:58.702Z,570.47
2018-07-11T10:37:25.965Z,558.93
2018-07-11T10:39:53.201Z,546.80
2018-07-11T10:42:20.473Z,542.43
2018-07-11T10:44:47.791Z,547.20
2018-07-11T10:47:15.006Z,544.47
2018-07-11T10:49:43.236Z,549.37
2018-07-11T10:52:10.496Z,543.50
2018-07-11T10:54:38.076Z,534.70
2018-07-11T10:57:05.338Z,530.77
2018-07-11T10:59:32.704Z,527.73
2018-07-11T11:02:00.073Z,521.67
2018-07-11T11:04:27.324Z,524.30
2018-07-11T11:06:54.545Z,520.87
2018-07-11T11:09:21.801Z,524.20
2018-07-11T11:11:49.037Z,528.27
2018-07-11T11:14:16.303Z,530.37
2018-07-11T11:16:43.548Z,530.53
2018-07-11T11:19:10.781Z,524.70
2018-07-11T11:21:38.013Z,527.33
2018-07-11T11:24:05.331Z,525.17
2018-07-11T11:26:32.548Z,521.70
2018-07-11T11:28:59.798Z,519.37
2018-07-11T11:31:27.043Z,523.03
2018-07-11T11:33:54.329Z,515.40
2018-07-11T11:36:21.593Z,514.43
2018-07-11T11:38:48.917Z,509.80
2018-07-11T11:41:16.191Z,511.60
2018-07-11T11:43:43.436Z,508.70
2018-07-11T11:46:10.666Z,506.13
2018-07-11T11:48:37.972Z,505.30
2018-07-11T11:51:05.507Z,504.70
2018-07-11T11:53:32.725Z,503.13
2018-07-11T11:56:00.011Z,506.93
2018-07-11T11:58:27.308Z,504.93
2018-07-11T12:00:54.531Z,506.73
2018-07-11T12:03:21.809Z,508.10
2018-07-11T12:05:49.061Z,508.33
2018-07-11T12:08:16.313Z,510.37
2018-07-11T12:10:43.537Z,516.03
2018-07-11T12:13:10.797Z,520.07
2018-07-11T12:15:38.026Z,522.43
2018-07-11T12:18:05.238Z,528.37
2018-07-11T12:20:32.515Z,540.40
2018-07-11T12:22:59.849Z,545.53
2018-07-11T12:25:27.135Z,560.27
2018-07-11T12:27:54.361Z,568.67
2018-07-11T12:30:21.638Z,597.53
2018-07-11T12:32:48.873Z,664.27
2018-07-11T12:35:16.166Z,663.87
2018-07-11T12:37:43.912Z,651.10
2018-07-11T12:40:11.133Z,633.57
2018-07-11T12:42:38.397Z,601.97
2018-07-11T12:45:05.648Z,568.30
2018-07-11T12:48:38.397Z,561.90
2018-07-11T12:51:05.656Z,548.77
2018-07-11T12:53:32.920Z,537.43
2018-07-11T12:56:00.196Z,537.33
2018-07-11T12:58:27.429Z,530.10
2018-07-11T13:00:55.109Z,523.30
2018-07-11T13:03:22.381Z,523.30
2018-07-11T13:05:50.401Z,526.33
2018-07-11T13:08:18.975Z,519.67
2018-07-11T13:10:46.234Z,520.83
2018-07-11T13:13:13.487Z,514.00
2018-07-11T13:15:40.748Z,515.97
2018-07-11T13:18:08.021Z,519.27
2018-07-11T13:20:35.258Z,514.67
2018-07-11T13:23:02.477Z,512.80
2018-07-11T13:25:29.761Z,517.33
2018-07-11T13:27:56.984Z,511.20
2018-07-11T13:30:24.265Z,513.60
2018-07-11T13:32:51.844Z,515.23
2018-07-11T13:35:19.124Z,517.87
2018-07-11T13:37:46.564Z,517.30
2018-07-11T13:40:13.828Z,520.73
2018-07-11T13:42:41.097Z,523.30
2018-07-11T13:45:08.341Z,527.87
2018-07-11T13:47:35.565Z,530.87
2018-07-11T13:50:02.863Z,536.90
2018-07-11T13:52:30.125Z,538.87
2018-07-11T13:54:57.368Z,533.50
2018-07-11T13:57:24.643Z,537.73
2018-07-11T13:59:51.889Z,536.23
2018-07-11T14:02:19.321Z,537.67
2018-07-11T14:04:46.556Z,535.70
2018-07-11T14:07:13.811Z,535.07
2018-07-11T14:09:41.056Z,533.07
2018-07-11T14:12:08.300Z,531.20
2018-07-11T14:14:35.532Z,539.60
2018-07-11T14:17:03.108Z,532.87
2018-07-11T14:19:30.368Z,539.30
2018-07-11T14:21:57.622Z,540.83
2018-07-11T14:24:26.132Z,546.57
2018-07-11T14:26:53.421Z,543.23
2018-07-11T14:29:21.380Z,547.53
2018-07-11T14:31:49.063Z,543.50
2018-07-11T14:34:16.290Z,554.67
2018-07-11T14:36:43.548Z,549.90
2018-07-11T14:39:10.761Z,551.30
2018-07-11T14:41:38.018Z,550.90
2018-07-11T14:44:05.257Z,553.27
2018-07-11T14:46:33.897Z,556.73
2018-07-11T14:49:01.169Z,560.37
2018-07-11T14:51:28.497Z,561.77
2018-07-11T14:53:56.681Z,558.83
2018-07-11T14:56:23.999Z,568.13
2018-07-11T14:58:52.437Z,567.23
2018-07-11T15:01:19.912Z,566.37
2018-07-11T15:03:47.173Z,564.23
2018-07-11T15:06:14.485Z,561.13
2018-07-11T15:08:41.756Z,558.40
2018-07-11T15:11:09.023Z,569.00
2018-07-11T15:13:36.252Z,570.63
2018-07-11T15:16:03.513Z,561.23
2018-07-11T15:18:30.813Z,564.50
2018-07-11T15:20:58.123Z,567.87
2018-07-11T15:23:25.397Z,564.37
2018-07-11T15:25:52.655Z,564.10
2018-07-11T15:28:19.935Z,563.53
2018-07-11T15:30:47.202Z,563.33
2018-07-11T15:33:14.536Z,561.90
2018-07-11T15:35:41.813Z,559.53
2018-07-11T15:38:09.194Z,556.33
2018-07-11T15:40:36.893Z,555.30
2018-07-11T15:43:04.201Z,551.73
2018-07-11T15:45:31.466Z,543.83
2018-07-11T15:48:00.012Z,542.97
2018-07-11T15:50:27.472Z,543.80
2018-07-11T15:52:54.755Z,541.87
2018-07-11T15:55:22.029Z,544.83
2018-07-11T15:57:49.668Z,548.17
2018-07-11T16:00:17.544Z,555.83
2018-07-11T16:02:48.596Z,556.50
2018-07-11T16:05:17.720Z,550.93
2018-07-11T16:07:48.151Z,548.80
2018-07-11T16:10:15.917Z,556.87
2018-07-11T16:12:43.195Z,551.77
2018-07-11T16:15:10.529Z,552.47
2018-07-11T16:17:37.796Z,547.70
2018-07-11T16:20:05.178Z,545.80
2018-07-11T16:22:32.669Z,545.33
2018-07-11T16:25:00.082Z,541.97
2018-07-11T16:27:27.565Z,539.63
2018-07-11T16:29:54.875Z,544.97
2018-07-11T16:32:22.128Z,544.57
2018-07-11T16:34:49.406Z,551.57
2018-07-11T16:37:16.710Z,545.97
2018-07-11T16:39:44.025Z,547.67
2018-07-11T16:42:11.245Z,547.33
2018-07-11T16:44:38.764Z,544.23
2018-07-11T16:47:06.936Z,542.30
2018-07-11T16:49:36.932Z,541.33
2018-07-11T16:52:07.307Z,540.33
2018-07-11T16:54:34.921Z,541.10
2018-07-11T16:57:03.198Z,533.83
2018-07-11T16:59:39.837Z,533.07
2018-07-11T17:02:08.093Z,528.87
2018-07-11T17:04:38.244Z,525.23
2018-07-11T17:07:07.286Z,524.40
2018-07-11T17:09:36.493Z,524.17
2018-07-11T17:12:04.273Z,524.00
2018-07-11T17:14:31.534Z,522.57
2018-07-11T17:16:59.956Z,521.17
2018-07-11T17:19:37.542Z,519.53
2018-07-11T17:22:05.673Z,516.07
2018-07-11T17:24:37.037Z,518.90
2018-07-11T17:27:04.344Z,516.00
2018-07-11T17:29:31.757Z,518.70
2018-07-11T17:32:03.790Z,516.07
2018-07-11T17:34:31.468Z,516.40
2018-07-11T17:37:00.417Z,512.60
2018-07-11T17:39:35.557Z,514.70
2018-07-11T17:42:02.818Z,512.70
2018-07-11T17:44:30.217Z,512.47
2018-07-11T17:46:57.527Z,514.60
2018-07-11T17:49:32.022Z,512.23
2018-07-11T17:52:06.893Z,514.40
2018-07-11T17:54:57.316Z,512.03
2018-07-11T17:57:30.241Z,507.37
2018-07-11T18:00:06.307Z,512.83
2018-07-11T18:02:41.588Z,506.40
2018-07-11T18:05:21.830Z,512.23
2018-07-11T18:07:50.304Z,505.93
2018-07-11T18:10:55.468Z,507.67
2018-07-11T18:13:28.556Z,505.40
2018-07-11T18:16:18.632Z,509.37
2018-07-11T18:19:53.676Z,505.40
2018-07-11T18:22:34.482Z,511.40
2018-07-11T18:25:12.090Z,510.43
2018-07-11T18:28:53.291Z,504.93
2018-07-11T18:31:32.161Z,505.33
2018-07-11T18:34:10.849Z,501.33
2018-07-11T18:36:46.306Z,503.33
2018-07-11T18:39:20.705Z,504.07
2018-07-11T18:41:57.390Z,505.27
2018-07-11T18:44:26.100Z,507.43
2018-07-11T18:47:02.030Z,505.20
2018-07-11T18:49:35.200Z,501.33
2018-07-11T18:52:15.548Z,504.33
2018-07-11T18:54:50.670Z,501.27
2018-07-11T18:57:29.127Z,502.40
2018-07-11T19:00:08.082Z,505.77
2018-07-11T19:03:03.689Z,503.63
2018-07-11T19:05:43.957Z,504.23
2018-07-11T19:08:22.613Z,503.20
2018-07-11T19:11:23.328Z,501.93
2018-07-11T19:14:07.693Z,500.63
2018-07-11T19:16:51.764Z,503.63
2018-07-11T19:19:30.862Z,499.80
2018-07-11T19:22:01.510Z,501.13
2018-07-11T19:24:38.889Z,501.37
2018-07-11T19:27:15.362Z,498.20
2018-07-11T19:30:02.050Z,500.03
2018-07-11T19:32:41.021Z,497.83
2018-07-11T19:35:15.335Z,503.83
2018-07-11T19:38:02.146Z,500.30
2018-07-11T19:40:43.053Z,501.03
2018-07-11T19:43:35.240Z,495.37
2018-07-11T19:46:59.082Z,494.97
2018-07-11T19:49:37.068Z,496.50
2018-07-11T19:52:21.288Z,494.57
2018-07-11T19:54:59.937Z,491.87
2018-07-11T19:57:27.220Z,495.00
2018-07-11T19:59:54.693Z,494.83
2018-07-11T20:02:22.148Z,495.67
2018-07-11T20:04:49.413Z,495.60
2018-07-11T20:07:16.706Z,497.10
2018-07-11T20:09:44.047Z,494.20
2018-07-11T20:12:11.544Z,494.67
2018-07-11T20:14:38.978Z,493.20
2018-07-11T20:17:06.234Z,496.93
2018-07-11T20:19:33.506Z,496.97
2018-07-11T20:22:00.749Z,497.57
2018-07-11T20:24:28.182Z,491.93
2018-07-11T20:26:55.438Z,494.80
2018-07-11T20:29:22.821Z,494.10
2018-07-11T20:31:50.201Z,494.10
2018-07-11T20:34:17.446Z,493.80
2018-07-11T20:36:44.708Z,495.30
2018-07-11T20:39:11.941Z,492.93
2018-07-11T20:41:39.320Z,504.03
2018-07-11T20:44:06.593Z,496.43
2018-07-11T20:46:33.965Z,494.77
2018-07-11T20:49:06.248Z,494.00
2018-07-11T20:51:33.565Z,496.03
2018-07-11T20:54:00.787Z,495.63
2018-07-11T20:56:28.215Z,495.30
2018-07-11T20:59:07.082Z,496.17
2018-07-11T21:01:45.813Z,494.73
2018-07-11T21:04:25.906Z,495.77
2018-07-11T21:07:04.448Z,491.77
2018-07-11T21:09:49.082Z,493.43
2018-07-11T21:16:36.645Z,491.17
2018-07-11T21:19:05.308Z,491.60
2018-07-11T21:21:33.493Z,493.03
2018-07-11T21:24:00.860Z,492.80
2018-07-11T21:26:28.097Z,489.80
2018-07-11T21:28:55.336Z,490.47
2018-07-11T21:31:22.566Z,488.83
2018-07-11T21:33:49.789Z,495.17
2018-07-11T21:36:17.004Z,489.13
2018-07-11T21:38:44.286Z,489.60
2018-07-11T21:41:12.018Z,493.27
2018-07-11T21:43:39.258Z,488.23
2018-07-11T21:46:06.519Z,489.77
2018-07-11T21:48:33.759Z,488.80
2018-07-11T21:51:01.013Z,491.20
2018-07-11T21:53:28.246Z,492.67
2018-07-11T21:55:55.482Z,491.80
2018-07-11T21:58:22.730Z,489.47
2018-07-11T22:00:49.962Z,493.17
2018-07-11T22:03:17.224Z,489.60
2018-07-11T22:05:44.462Z,489.10
2018-07-11T22:08:11.671Z,488.47
2018-07-11T22:10:39.503Z,489.17
2018-07-11T22:13:06.966Z,488.80
2018-07-11T22:15:34.548Z,489.73
2018-07-11T22:18:13.681Z,487.37
2018-07-11T22:20:39.968Z,488.03
2018-07-11T22:23:06.252Z,491.00
2018-07-11T22:25:32.537Z,492.37
2018-07-11T22:27:59.267Z,494.17
2018-07-11T22:30:26.118Z,488.53
2018-07-11T22:32:52.398Z,487.57
2018-07-11T22:35:18.689Z,495.00
2018-07-11T22:37:45.140Z,486.10
2018-07-11T22:40:11.421Z,486.37
2018-07-11T22:42:37.835Z,489.47
2018-07-11T22:45:04.125Z,488.27
2018-07-11T22:47:30.717Z,487.70
2018-07-11T22:49:57.772Z,490.33
2018-07-11T22:52:24.097Z,487.23
2018-07-11T22:54:50.353Z,490.73
2018-07-11T22:57:16.655Z,490.03
2018-07-11T22:59:42.946Z,493.77
2018-07-11T23:02:09.221Z,488.30
2018-07-11T23:04:35.508Z,488.47
2018-07-11T23:07:01.813Z,491.30
2018-07-11T23:09:28.089Z,486.13
2018-07-11T23:11:54.405Z,488.93
2018-07-11T23:14:20.681Z,485.93
2018-07-11T23:16:46.971Z,487.90
2018-07-11T23:19:13.257Z,489.77
2018-07-11T23:21:39.940Z,492.13
2018-07-11T23:24:06.222Z,488.97
2018-07-11T23:26:32.498Z,491.23
2018-07-11T23:28:58.810Z,487.33
2018-07-11T23:31:25.099Z,487.13
2018-07-11T23:33:51.390Z,486.20
2018-07-11T23:36:17.672Z,491.60
2018-07-11T23:38:44.054Z,485.73
2018-07-11T23:41:10.251Z,486.63
2018-07-11T23:43:36.531Z,487.27
2018-07-11T23:46:02.817Z,484.60
2018-07-11T23:48:29.094Z,484.97
2018-07-11T23:50:55.485Z,491.77
2018-07-11T23:53:21.771Z,486.40
2018-07-11T23:55:48.074Z,484.03
2018-07-11T23:58:14.372Z,485.93
